Time;durP1;ratioP1;P1;durP2;ratioP2;P2;SDS_P1;SDS_P2;PMS_P1;PMS_P2;Temp;Humidity;BMP_temperature;BMP_pressure;BME280_temperature;BME280_humidity;BME280_pressure;Samples;Min_cycle;Max_cycle;Signal;HPM_P1;HPM_P2
2021/09/28 00:01:59;;;;;;;9.13;8.33;;;16.20;99.90;;;;;;5032348;28;20175;-74
2021/09/28 00:04:24;;;;;;;8.63;7.77;;;16.20;99.90;;;;;;5032265;28;20181;-67
2021/09/28 00:06:50;;;;;;;8.70;7.90;;;16.10;99.90;;;;;;5035222;28;20656;-68
2021/09/28 00:09:16;;;;;;;9.33;7.80;;;16.20;99.90;;;;;;5051571;28;20216;-67
2021/09/28 00:11:42;;;;;;;10.53;7.97;;;16.20;99.90;;;;;;5052191;28;20400;-67
2021/09/28 00:14:08;;;;;;;7.77;6.87;;;16.10;99.90;;;;;;5051617;28;20548;-67
2021/09/28 00:16:33;;;;;;;7.97;7.13;;;16.10;99.90;;;;;;5052326;28;20189;-67
2021/09/28 00:18:59;;;;;;;8.77;7.83;;;16.10;99.90;;;;;;5052106;28;20181;-75
2021/09/28 00:21:26;;;;;;;8.93;7.00;;;16.10;99.90;;;;;;5051263;28;20173;-67
2021/09/28 00:23:52;;;;;;;11.10;7.40;;;16.00;99.90;;;;;;5052278;28;20181;-67
2021/09/28 00:26:17;;;;;;;6.70;6.00;;;16.00;99.90;;;;;;5051259;28;20412;-67
2021/09/28 00:28:43;;;;;;;6.90;6.30;;;16.00;99.90;;;;;;5052168;28;20252;-67
2021/09/28 00:31:09;;;;;;;7.00;6.40;;;16.00;99.90;;;;;;5051336;28;20173;-68
2021/09/28 00:33:35;;;;;;;7.23;6.43;;;15.90;99.90;;;;;;5052164;28;20173;-68
2021/09/28 00:36:00;;;;;;;6.70;6.13;;;15.90;99.90;;;;;;5051810;28;20181;-75
2021/09/28 00:38:26;;;;;;;7.80;6.97;;;15.90;99.90;;;;;;5051268;28;20180;-67
2021/09/28 00:40:52;;;;;;;10.97;7.17;;;15.80;99.90;;;;;;5052156;28;20185;-67
2021/09/28 00:43:18;;;;;;;9.20;6.50;;;15.90;99.90;;;;;;5049388;28;20176;-68
2021/09/28 00:45:44;;;;;;;7.87;7.00;;;15.90;99.90;;;;;;5051833;28;20451;-67
2021/09/28 00:48:09;;;;;;;7.90;7.10;;;15.80;99.90;;;;;;5050977;28;20189;-68
2021/09/28 00:50:36;;;;;;;11.23;6.67;;;15.80;99.90;;;;;;5051987;28;20203;-68
2021/09/28 00:53:04;;;;;;;6.90;6.10;;;15.90;99.90;;;;;;5051701;28;20169;-74
2021/09/28 00:55:30;;;;;;;5.03;4.63;;;15.90;99.90;;;;;;5051760;28;20458;-67
2021/09/28 00:57:57;;;;;;;6.20;5.57;;;15.80;99.90;;;;;;5051687;28;20917;-67
2021/09/28 01:00:24;;;;;;;6.23;5.63;;;15.80;99.90;;;;;;5033335;28;20408;-68
2021/09/28 01:02:52;;;;;;;7.40;5.60;;;15.80;99.90;;;;;;5037825;28;20772;-67
2021/09/28 01:05:17;;;;;;;7.90;5.40;;;15.80;99.90;;;;;;5032840;28;20435;-67
2021/09/28 01:07:43;;;;;;;5.83;5.10;;;15.80;99.90;;;;;;5052067;28;20399;-68
2021/09/28 01:10:09;;;;;;;5.70;5.20;;;15.80;99.90;;;;;;5050973;28;20253;-68
2021/09/28 01:12:35;;;;;;;7.90;5.33;;;15.80;99.90;;;;;;5051716;28;20633;-67
2021/09/28 01:15:01;;;;;;;7.90;5.30;;;15.80;99.90;;;;;;5033956;28;20517;-67
2021/09/28 01:17:28;;;;;;;5.77;5.07;;;15.80;99.90;;;;;;5049078;28;20283;-68
2021/09/28 01:19:53;;;;;;;5.33;4.93;;;15.70;99.90;;;;;;5031783;28;20193;-67
2021/09/28 01:22:19;;;;;;;8.30;5.37;;;15.70;99.90;;;;;;5043990;28;20430;-68
2021/09/28 01:24:47;;;;;;;8.53;5.60;;;15.70;99.90;;;;;;5051711;28;20173;-67
2021/09/28 01:27:13;;;;;;;7.50;5.93;;;15.70;99.90;;;;;;5050848;28;20200;-68
2021/09/28 01:29:39;;;;;;;7.27;5.07;;;15.70;99.90;;;;;;5051653;28;20917;-68
2021/09/28 01:32:05;;;;;;;7.33;5.10;;;15.80;99.90;;;;;;5051106;28;20403;-74
2021/09/28 01:34:31;;;;;;;7.83;5.30;;;15.80;99.90;;;;;;5051316;28;20550;-68
2021/09/28 01:36:57;;;;;;;5.40;4.90;;;15.80;99.90;;;;;;5051602;28;20494;-67
2021/09/28 01:39:23;;;;;;;6.10;4.67;;;15.80;99.90;;;;;;5053993;28;20469;-67
2021/09/28 01:41:49;;;;;;;4.80;4.40;;;15.90;99.90;;;;;;5025893;28;20195;-68
2021/09/28 01:44:17;;;;;;;10.63;4.50;;;15.90;99.90;;;;;;5035381;28;20617;-68
2021/09/28 01:46:45;;;;;;;4.70;4.27;;;15.90;99.90;;;;;;5055033;28;20490;-67
2021/09/28 01:49:14;;;;;;;5.30;4.00;;;16.00;99.90;;;;;;5036522;28;20406;-68
2021/09/28 01:51:40;;;;;;;7.60;4.40;;;15.90;99.90;;;;;;5054966;28;20872;-68
2021/09/28 01:54:08;;;;;;;5.80;4.13;;;16.00;99.90;;;;;;5054418;28;20455;-75
2021/09/28 01:56:34;;;;;;;5.43;4.87;;;16.00;99.90;;;;;;5054927;28;20465;-67
2021/09/28 01:59:02;;;;;;;11.53;4.50;;;16.00;99.90;;;;;;5052779;28;20446;-67
2021/09/28 02:01:28;;;;;;;4.50;4.07;;;16.00;99.90;;;;;;5016797;28;20420;-67
2021/09/28 02:03:54;;;;;;;7.20;4.93;;;15.90;99.90;;;;;;5034944;28;20751;-67
2021/09/28 02:06:21;;;;;;;7.30;4.30;;;15.90;99.90;;;;;;5016447;28;20405;-68
2021/09/28 02:08:48;;;;;;;7.07;4.70;;;15.90;99.90;;;;;;5034784;28;20235;-67
2021/09/28 02:11:14;;;;;;;6.30;4.10;;;15.90;99.90;;;;;;5033993;28;20435;-68
2021/09/28 02:13:40;;;;;;;5.40;4.60;;;16.00;99.90;;;;;;5034285;28;20411;-67
2021/09/28 02:16:06;;;;;;;7.13;5.17;;;15.90;99.90;;;;;;5034432;28;20427;-73
2021/09/28 02:18:32;;;;;;;7.10;5.13;;;16.00;99.90;;;;;;5034224;28;20240;-67
2021/09/28 02:20:58;;;;;;;4.87;4.40;;;15.90;99.90;;;;;;5034665;28;20424;-68
2021/09/28 02:23:24;;;;;;;7.10;5.03;;;15.90;99.90;;;;;;5033692;28;20185;-68
2021/09/28 02:25:50;;;;;;;5.37;4.60;;;15.90;99.90;;;;;;5034450;28;20188;-68
2021/09/28 02:28:16;;;;;;;5.90;5.07;;;15.90;99.90;;;;;;5016051;28;20592;-68
2021/09/28 02:30:41;;;;;;;5.23;4.73;;;15.90;99.90;;;;;;5034488;28;20396;-68
2021/09/28 02:33:07;;;;;;;5.07;4.67;;;16.00;99.90;;;;;;5034213;28;20201;-73
2021/09/28 02:35:33;;;;;;;9.20;5.03;;;15.90;99.90;;;;;;5033730;28;20213;-67
2021/09/28 02:37:59;;;;;;;7.77;5.43;;;15.90;99.90;;;;;;5033990;28;20262;-68
2021/09/28 02:40:26;;;;;;;6.53;5.57;;;15.90;99.90;;;;;;5033243;28;20185;-67
2021/09/28 02:42:52;;;;;;;7.23;4.90;;;16.00;99.90;;;;;;5016582;28;20409;-68
2021/09/28 02:45:18;;;;;;;8.10;5.87;;;15.90;99.90;;;;;;5033325;28;20424;-67
2021/09/28 02:47:44;;;;;;;9.23;5.33;;;16.00;99.90;;;;;;5034258;28;20403;-67
2021/09/28 02:50:10;;;;;;;9.43;4.77;;;16.00;99.90;;;;;;5032283;28;20432;-75
2021/09/28 02:52:36;;;;;;;6.80;5.23;;;16.00;99.90;;;;;;5016003;28;20431;-67
2021/09/28 02:55:03;;;;;;;5.30;4.80;;;16.00;99.90;;;;;;5033845;28;20468;-67
2021/09/28 02:57:29;;;;;;;16.53;5.57;;;15.90;99.90;;;;;;5015073;28;20174;-67
2021/09/28 02:59:55;;;;;;;8.53;5.20;;;15.90;99.90;;;;;;5033372;28;20440;-68
2021/09/28 03:02:20;;;;;;;5.90;4.73;;;16.00;99.90;;;;;;5033008;28;20629;-68
2021/09/28 03:04:46;;;;;;;5.97;4.93;;;16.10;99.90;;;;;;5033503;28;20176;-67
2021/09/28 03:07:12;;;;;;;5.93;4.50;;;16.00;99.90;;;;;;5033115;28;20599;-74
2021/09/28 03:09:37;;;;;;;6.70;4.53;;;15.90;99.90;;;;;;5016059;28;20209;-68
2021/09/28 03:12:04;;;;;;;6.77;6.03;;;15.90;99.90;;;;;;5033566;28;20179;-69
2021/09/28 03:14:30;;;;;;;9.80;5.50;;;15.90;99.90;;;;;;5032514;28;20210;-68
2021/09/28 03:16:55;;;;;;;5.30;4.80;;;15.90;99.90;;;;;;5033433;28;20443;-68
2021/09/28 03:19:21;;;;;;;8.17;5.17;;;15.90;99.90;;;;;;5032589;28;20206;-68
2021/09/28 03:21:48;;;;;;;8.47;5.10;;;15.90;99.90;;;;;;5033374;28;20184;-67
2021/09/28 03:24:13;;;;;;;6.50;5.37;;;15.90;99.90;;;;;;5032393;28;20630;-75
2021/09/28 03:26:39;;;;;;;5.63;4.90;;;15.90;99.90;;;;;;5033143;28;20447;-67
2021/09/28 03:29:06;;;;;;;6.10;5.07;;;15.90;99.90;;;;;;5033313;28;20568;-67
2021/09/28 03:31:31;;;;;;;6.80;5.47;;;15.90;99.90;;;;;;5032449;28;20655;-67
2021/09/28 03:33:57;;;;;;;6.20;5.10;;;15.90;99.90;;;;;;5032830;28;20560;-67
2021/09/28 03:36:23;;;;;;;4.83;4.40;;;15.90;99.90;;;;;;5032324;28;20410;-67
2021/09/28 03:38:49;;;;;;;5.07;4.60;;;15.80;99.90;;;;;;5034080;28;20260;-68
2021/09/28 03:41:14;;;;;;;6.90;5.47;;;15.80;99.90;;;;;;5032643;28;20184;-75
2021/09/28 03:43:40;;;;;;;5.37;4.87;;;15.80;99.90;;;;;;5032930;28;20169;-67
2021/09/28 03:46:06;;;;;;;7.83;5.63;;;15.80;99.90;;;;;;5032906;28;20229;-67
2021/09/28 03:48:32;;;;;;;7.10;5.70;;;15.80;99.90;;;;;;5032092;28;20174;-67
2021/09/28 03:50:57;;;;;;;5.80;5.30;;;15.80;99.90;;;;;;5032886;28;20185;-67
2021/09/28 03:53:23;;;;;;;5.00;4.50;;;15.80;99.90;;;;;;5031744;28;20260;-67
2021/09/28 03:55:50;;;;;;;5.00;4.67;;;15.80;99.90;;;;;;5014683;28;20231;-67
2021/09/28 03:58:16;;;;;;;5.63;4.10;;;15.80;99.90;;;;;;5031935;28;20490;-70
2021/09/28 04:00:42;;;;;;;9.33;5.30;;;15.80;99.90;;;;;;5032721;28;20460;-67
2021/09/28 04:03:08;;;;;;;5.30;4.80;;;15.80;99.90;;;;;;5032682;28;20443;-67
2021/09/28 04:05:37;;;;;;;8.00;5.50;;;15.80;99.90;;;;;;5031951;28;20939;-67
2021/09/28 04:08:03;;;;;;;5.30;4.77;;;15.80;99.90;;;;;;5032484;28;20431;-67
2021/09/28 04:10:29;;;;;;;6.50;5.20;;;15.80;99.90;;;;;;5031712;28;20401;-67
2021/09/28 04:12:55;;;;;;;5.50;5.10;;;15.70;99.90;;;;;;5032494;28;20407;-68
2021/09/28 04:15:24;;;;;;;9.73;5.63;;;15.70;99.90;;;;;;5031522;28;20467;-67
2021/09/28 04:17:50;;;;;;;5.73;5.10;;;15.70;99.90;;;;;;5032439;28;20554;-67
2021/09/28 04:20:16;;;;;;;6.53;5.80;;;15.70;99.90;;;;;;5044157;28;20507;-74
2021/09/28 04:22:43;;;;;;;7.57;4.50;;;15.70;99.90;;;;;;5050301;28;20520;-67
2021/09/28 04:25:10;;;;;;;10.63;5.23;;;15.70;99.90;;;;;;5051815;28;20473;-67
2021/09/28 04:27:36;;;;;;;7.50;6.00;;;15.70;99.90;;;;;;5051300;28;20587;-67
2021/09/28 04:30:06;;;;;;;8.43;5.73;;;15.60;99.90;;;;;;5051644;28;20411;-67
2021/09/28 04:32:32;;;;;;;6.57;4.80;;;15.70;99.90;;;;;;5051069;28;20497;-67
2021/09/28 04:34:57;;;;;;;9.90;6.40;;;15.70;99.90;;;;;;5050093;28;20550;-68
2021/09/28 04:37:23;;;;;;;6.37;5.80;;;15.60;99.90;;;;;;5051372;28;20184;-67
2021/09/28 04:39:49;;;;;;;7.73;5.50;;;15.60;99.90;;;;;;5052060;28;20183;-67
2021/09/28 04:42:15;;;;;;;10.93;6.73;;;15.70;99.90;;;;;;5034049;28;20235;-75
2021/09/28 04:44:42;;;;;;;7.83;6.47;;;15.70;99.90;;;;;;5051347;28;20265;-67
2021/09/28 04:47:08;;;;;;;6.97;5.93;;;15.70;99.90;;;;;;5039357;28;20472;-67
2021/09/28 04:49:34;;;;;;;7.27;5.50;;;15.60;99.90;;;;;;5051373;28;20439;-67
2021/09/28 04:51:59;;;;;;;11.13;6.93;;;15.70;99.90;;;;;;5036322;28;20521;-67
2021/09/28 04:54:25;;;;;;;6.27;5.70;;;15.60;99.90;;;;;;5030971;28;20213;-67
2021/09/28 04:56:51;;;;;;;6.90;5.80;;;15.60;99.90;;;;;;5017264;28;20177;-68
2021/09/28 04:59:16;;;;;;;7.80;6.20;;;15.60;99.90;;;;;;5042317;28;20537;-68
2021/09/28 05:01:42;;;;;;;6.80;6.10;;;15.50;99.90;;;;;;5036691;28;20177;-68
2021/09/28 05:04:08;;;;;;;7.70;5.50;;;15.40;99.90;;;;;;5051707;28;20254;-68
2021/09/28 05:06:34;;;;;;;9.27;7.40;;;15.40;99.90;;;;;;5042849;28;20177;-68
2021/09/28 05:08:59;;;;;;;9.00;5.77;;;15.40;99.90;;;;;;5031058;28;20182;-68
2021/09/28 05:11:25;;;;;;;10.83;6.53;;;15.40;99.90;;;;;;5035266;28;20173;-67
2021/09/28 05:13:51;;;;;;;9.40;6.63;;;15.40;99.90;;;;;;5036245;28;20537;-68
2021/09/28 05:16:18;;;;;;;9.30;6.60;;;15.30;99.90;;;;;;5046235;28;20231;-75
2021/09/28 05:18:44;;;;;;;12.03;7.30;;;15.30;99.90;;;;;;5035418;28;20185;-67
2021/09/28 05:21:10;;;;;;;6.87;6.17;;;15.30;99.90;;;;;;5048077;28;20829;-67
2021/09/28 05:23:36;;;;;;;10.37;6.90;;;15.20;99.90;;;;;;5053434;28;20183;-69
2021/09/28 05:26:02;;;;;;;8.83;7.17;;;15.20;99.90;;;;;;5036001;28;20790;-68
2021/09/28 05:28:28;;;;;;;7.20;6.27;;;15.20;99.90;;;;;;5049310;28;20185;-69
2021/09/28 05:30:54;;;;;;;8.23;6.00;;;15.20;99.90;;;;;;5036133;28;20186;-68
2021/09/28 05:33:22;;;;;;;8.73;7.33;;;15.10;99.90;;;;;;5042416;28;20176;-71
2021/09/28 05:35:47;;;;;;;11.57;8.13;;;15.10;99.90;;;;;;5051909;28;20464;-68
2021/09/28 05:38:13;;;;;;;8.23;7.20;;;15.20;99.90;;;;;;5041091;28;20425;-69
2021/09/28 05:40:40;;;;;;;8.83;7.90;;;15.50;99.90;;;;;;5042166;28;20185;-68
2021/09/28 05:43:05;;;;;;;9.40;7.77;;;15.80;99.90;;;;;;5036515;28;20853;-68
2021/09/28 05:45:31;;;;;;;7.70;6.80;;;16.10;99.90;;;;;;5034052;28;20543;-68
2021/09/28 05:47:57;;;;;;;8.07;7.27;;;16.40;99.90;;;;;;5034714;28;20189;-68
2021/09/28 05:50:23;;;;;;;9.37;7.03;;;16.70;99.90;;;;;;5017921;28;20181;-69
2021/09/28 05:52:49;;;;;;;10.00;7.60;;;16.90;99.90;;;;;;5034955;28;20224;-68
2021/09/28 05:55:15;;;;;;;8.87;7.90;;;17.10;99.90;;;;;;5035451;28;20209;-68
2021/09/28 05:57:42;;;;;;;8.03;7.30;;;17.30;99.90;;;;;;5034720;28;20413;-68
2021/09/28 06:00:10;;;;;;;8.77;7.87;;;17.40;99.90;;;;;;5037316;28;20425;-68
2021/09/28 06:02:36;;;;;;;9.87;7.00;;;17.50;99.90;;;;;;5045700;28;20492;-68
2021/09/28 06:05:02;;;;;;;8.87;8.00;;;17.70;99.90;;;;;;5035249;28;20449;-68
2021/09/28 06:07:28;;;;;;;8.73;6.83;;;17.80;99.90;;;;;;5047781;28;20420;-68
2021/09/28 06:09:54;;;;;;;8.03;6.83;;;17.90;99.80;;;;;;5039186;28;20778;-68
2021/09/28 06:12:20;;;;;;;9.40;7.37;;;17.90;99.70;;;;;;5045311;28;20429;-70
2021/09/28 06:14:46;;;;;;;7.50;6.87;;;18.00;99.40;;;;;;5046078;28;20293;-67
2021/09/28 06:17:12;;;;;;;9.23;6.80;;;18.00;99.30;;;;;;5035354;28;20265;-67
2021/09/28 06:19:38;;;;;;;8.30;6.67;;;17.90;98.10;;;;;;5043604;28;20555;-67
2021/09/28 06:22:05;;;;;;;8.30;6.43;;;17.70;98.10;;;;;;5008927;28;20194;-67
2021/09/28 06:24:32;;;;;;;8.13;6.87;;;17.40;98.30;;;;;;5033493;28;20498;-68
2021/09/28 06:27:00;;;;;;;6.67;5.93;;;17.20;98.70;;;;;;5034924;28;20425;-67
2021/09/28 06:29:26;;;;;;;7.93;7.17;;;17.00;99.20;;;;;;5045256;28;20483;-67
2021/09/28 06:31:52;;;;;;;6.97;6.03;;;16.80;99.80;;;;;;5043451;28;20416;-67
2021/09/28 06:34:18;;;;;;;8.90;6.67;;;16.70;99.90;;;;;;5052649;28;20455;-67
2021/09/28 06:36:43;;;;;;;8.13;7.53;;;16.50;99.90;;;;;;5034368;28;20633;-67
2021/09/28 06:39:09;;;;;;;7.33;6.63;;;16.40;99.90;;;;;;5034185;28;20178;-67
2021/09/28 06:41:35;;;;;;;8.90;6.23;;;16.30;99.90;;;;;;5036889;28;20265;-68
2021/09/28 06:44:01;;;;;;;8.67;7.83;;;16.10;99.90;;;;;;5042833;28;20176;-67
2021/09/28 06:46:27;;;;;;;8.33;6.43;;;16.10;99.90;;;;;;5053226;28;20256;-67
2021/09/28 06:48:52;;;;;;;7.23;6.30;;;16.00;99.90;;;;;;5050391;28;20476;-67
2021/09/28 06:51:18;;;;;;;9.10;5.90;;;15.90;99.90;;;;;;5045017;28;20193;-67
2021/09/28 06:53:45;;;;;;;9.17;6.10;;;15.80;99.90;;;;;;5034853;28;20176;-67
2021/09/28 06:56:14;;;;;;;8.80;5.97;;;15.80;99.90;;;;;;5046131;28;20669;-66
2021/09/28 06:58:39;;;;;;;9.83;6.30;;;15.70;99.90;;;;;;5033051;28;20466;-67
2021/09/28 07:01:05;;;;;;;9.93;6.70;;;15.70;99.90;;;;;;5035915;28;20432;-67
2021/09/28 07:03:33;;;;;;;7.70;5.70;;;15.60;99.90;;;;;;5040560;28;20181;-67
2021/09/28 07:05:59;;;;;;;8.60;5.97;;;15.50;99.90;;;;;;5043671;28;20185;-67
2021/09/28 07:08:24;;;;;;;13.70;5.60;;;15.40;99.90;;;;;;5032997;28;20924;-70
2021/09/28 07:10:50;;;;;;;8.37;6.37;;;15.40;99.90;;;;;;5033545;28;20185;-67
2021/09/28 07:13:16;;;;;;;6.67;6.07;;;15.40;99.90;;;;;;5035161;28;20181;-67
2021/09/28 07:15:43;;;;;;;8.40;5.47;;;15.50;99.90;;;;;;5033854;28;20364;-67
2021/09/28 07:18:09;;;;;;;9.67;6.10;;;15.50;99.90;;;;;;5033449;28;20322;-67
2021/09/28 07:20:37;;;;;;;6.10;5.20;;;15.50;99.90;;;;;;5032700;28;20804;-67
2021/09/28 07:23:03;;;;;;;6.73;5.37;;;15.50;99.90;;;;;;5016168;28;20428;-67
2021/09/28 07:25:30;;;;;;;6.70;4.93;;;15.50;99.90;;;;;;5033873;28;20440;-67
2021/09/28 07:27:58;;;;;;;7.60;4.97;;;15.60;99.90;;;;;;5033967;28;20454;-67
2021/09/28 07:30:25;;;;;;;11.90;5.93;;;15.60;99.90;;;;;;5033203;28;20764;-70
2021/09/28 07:32:52;;;;;;;6.00;4.90;;;15.60;99.90;;;;;;5032840;28;20419;-67
2021/09/28 07:35:17;;;;;;;8.40;5.90;;;15.60;99.90;;;;;;5032506;28;20556;-67
2021/09/28 07:37:43;;;;;;;11.60;6.13;;;15.70;99.90;;;;;;5034966;28;20510;-67
2021/09/28 07:40:09;;;;;;;7.90;5.10;;;15.80;99.90;;;;;;5039314;28;20183;-67
2021/09/28 07:42:35;;;;;;;9.47;5.17;;;15.90;99.90;;;;;;5050497;28;20176;-67
2021/09/28 07:45:03;;;;;;;8.27;4.80;;;15.90;99.90;;;;;;5051630;28;20510;-66
2021/09/28 07:47:30;;;;;;;7.23;4.80;;;16.00;99.90;;;;;;5032269;28;20690;-67
2021/09/28 07:49:56;;;;;;;10.43;4.63;;;16.10;99.90;;;;;;5033460;28;20523;-67
2021/09/28 07:52:22;;;;;;;9.23;4.90;;;16.10;99.90;;;;;;5033175;28;20932;-67
2021/09/28 07:54:48;;;;;;;7.07;4.80;;;16.20;99.90;;;;;;5049574;28;20940;-66
2021/09/28 07:57:13;;;;;;;6.77;5.10;;;16.20;99.90;;;;;;5043291;28;20178;-67
2021/09/28 07:59:39;;;;;;;7.50;5.47;;;16.20;99.90;;;;;;5032261;28;20458;-67
2021/09/28 08:02:06;;;;;;;7.57;4.80;;;16.30;99.90;;;;;;5033113;28;20181;-66
2021/09/28 08:04:32;;;;;;;5.40;4.90;;;16.30;99.90;;;;;;5032511;28;20275;-66
2021/09/28 08:06:57;;;;;;;4.97;3.50;;;16.20;99.90;;;;;;5039888;28;20419;-66
2021/09/28 08:09:23;;;;;;;8.70;4.97;;;16.30;99.90;;;;;;5039662;28;20451;-66
2021/09/28 08:11:52;;;;;;;7.73;4.30;;;16.40;99.90;;;;;;5031925;28;20914;-67
2021/09/28 08:14:18;;;;;;;9.87;4.40;;;16.40;99.90;;;;;;5040068;28;20300;-66
2021/09/28 08:16:43;;;;;;;4.93;4.43;;;16.30;99.90;;;;;;5041121;28;20519;-66
2021/09/28 08:19:09;;;;;;;6.93;4.27;;;16.30;99.90;;;;;;5034216;28;20827;-67
2021/09/28 08:21:35;;;;;;;5.80;3.77;;;16.30;99.90;;;;;;5032153;28;20520;-67
2021/09/28 08:24:01;;;;;;;4.70;4.40;;;16.40;99.90;;;;;;5032518;28;20405;-66
2021/09/28 08:29:10;;;;;;;9.33;4.10;;;16.30;99.90;;;;;;5032508;28;20185;-66
2021/09/28 08:31:38;;;;;;;3.40;3.10;;;16.40;99.90;;;;;;5031997;28;20409;-66
2021/09/28 08:34:04;;;;;;;5.80;3.87;;;16.60;99.90;;;;;;5032495;28;20842;-66
2021/09/28 08:36:32;;;;;;;5.67;3.47;;;16.60;99.90;;;;;;5032126;28;20398;-67
2021/09/28 08:38:58;;;;;;;6.53;4.30;;;16.80;99.90;;;;;;5032556;28;20468;-67
2021/09/28 08:41:24;;;;;;;5.43;3.67;;;16.90;99.90;;;;;;5014947;28;20420;-67
2021/09/28 08:43:50;;;;;;;5.27;4.10;;;17.00;99.90;;;;;;5031888;28;20468;-66
2021/09/28 08:46:17;;;;;;;9.93;4.00;;;16.90;99.90;;;;;;5029754;28;20923;-66
2021/09/28 08:48:44;;;;;;;4.87;3.60;;;16.90;99.90;;;;;;5056089;28;20447;-66
2021/09/28 08:51:10;;;;;;;3.63;3.40;;;16.90;99.90;;;;;;5056753;28;20785;-67
2021/09/28 08:53:37;;;;;;;5.30;3.20;;;16.90;99.90;;;;;;5054785;28;20416;-67
2021/09/28 08:56:04;;;;;;;4.97;3.10;;;17.10;99.90;;;;;;5056484;28;20198;-66
2021/09/28 08:58:31;;;;;;;8.33;4.07;;;17.30;99.90;;;;;;5055895;28;20880;-68
2021/09/28 09:01:07;;;;;;;5.63;3.63;;;17.40;99.90;;;;;;5055362;28;20410;-67
2021/09/28 09:03:36;;;;;;;6.07;3.50;;;17.60;99.90;;;;;;5055750;28;20404;-66
2021/09/28 09:06:06;;;;;;;5.50;3.40;;;17.60;99.90;;;;;;5056364;28;20766;-66
2021/09/28 09:08:34;;;;;;;4.53;3.60;;;17.50;99.90;;;;;;5055645;28;20391;-67
2021/09/28 09:11:08;;;;;;;5.63;3.93;;;17.60;99.90;;;;;;5056253;28;20388;-67
2021/09/28 09:13:38;;;;;;;4.80;3.30;;;17.80;99.90;;;;;;5055568;28;20830;-67
2021/09/28 09:16:05;;;;;;;6.93;3.40;;;18.00;99.90;;;;;;5056092;28;20527;-67
2021/09/28 09:18:35;;;;;;;5.17;3.50;;;18.10;99.70;;;;;;5055497;28;20404;-67
2021/09/28 09:21:03;;;;;;;6.13;4.20;;;18.20;99.90;;;;;;5056367;28;20833;-66
2021/09/28 09:23:37;;;;;;;6.83;3.63;;;18.40;99.90;;;;;;5056014;28;20436;-66
2021/09/28 09:26:07;;;;;;;3.00;2.80;;;18.50;99.00;;;;;;5056278;28;20400;-66
2021/09/28 09:28:38;;;;;;;6.77;3.10;;;18.60;98.80;;;;;;5055384;28;20403;-66
2021/09/28 09:31:15;;;;;;;5.07;3.70;;;18.70;99.30;;;;;;5055892;28;20410;-67
2021/09/28 09:33:43;;;;;;;4.10;3.50;;;18.80;99.60;;;;;;5055076;28;20799;-67
2021/09/28 09:36:10;;;;;;;4.10;3.20;;;18.90;99.10;;;;;;5055619;28;20858;-66
2021/09/28 09:38:50;;;;;;;4.80;3.23;;;19.10;98.10;;;;;;5053676;28;20507;-67
2021/09/28 09:41:17;;;;;;;4.13;3.03;;;19.20;98.20;;;;;;5055481;28;20457;-66
2021/09/28 09:43:44;;;;;;;3.60;3.20;;;19.30;97.40;;;;;;5054851;28;20408;-67
2021/09/28 09:46:11;;;;;;;4.97;3.27;;;19.40;97.50;;;;;;5047025;28;20970;-66
2021/09/28 09:48:37;;;;;;;4.90;3.20;;;19.60;96.50;;;;;;5035016;28;20416;-67
2021/09/28 09:51:15;;;;;;;4.20;3.30;;;19.70;97.20;;;;;;5017963;28;20497;-66
2021/09/28 09:53:58;;;;;;;7.30;3.43;;;19.70;96.10;;;;;;5034885;28;20389;-66
2021/09/28 09:56:39;;;;;;;3.90;3.60;;;19.80;96.90;;;;;;5035445;28;20795;-66
2021/09/28 09:59:05;;;;;;;5.03;3.97;;;19.90;96.30;;;;;;5034844;28;20471;-66
2021/09/28 10:01:35;;;;;;;6.20;3.57;;;19.90;96.70;;;;;;5035340;28;20413;-67
2021/09/28 10:04:05;;;;;;;4.83;3.13;;;20.10;97.40;;;;;;5017930;28;20538;-66
2021/09/28 10:06:31;;;;;;;3.20;2.90;;;20.10;95.20;;;;;;5017610;28;20745;-66
2021/09/28 10:08:57;;;;;;;5.77;3.50;;;20.20;94.80;;;;;;5034525;28;20412;-66
2021/09/28 10:11:26;;;;;;;3.83;3.53;;;20.30;94.80;;;;;;5034962;28;20174;-66
2021/09/28 10:13:56;;;;;;;4.90;3.00;;;20.40;94.00;;;;;;5034465;28;20182;-66
2021/09/28 10:16:44;;;;;;;7.57;2.97;;;20.50;94.70;;;;;;5035031;28;20905;-66
2021/09/28 10:19:29;;;;;;;5.57;3.43;;;20.60;94.70;;;;;;5035214;28;20393;-66
2021/09/28 10:21:58;;;;;;;4.60;3.10;;;20.60;95.20;;;;;;5034034;28;20417;-67
2021/09/28 10:24:26;;;;;;;5.47;3.10;;;20.60;94.50;;;;;;5035154;28;20416;-66
2021/09/28 10:27:01;;;;;;;4.17;2.70;;;20.60;93.80;;;;;;5033989;28;20409;-67
2021/09/28 10:29:39;;;;;;;4.97;3.37;;;20.70;93.60;;;;;;5034831;28;20420;-67
2021/09/28 10:32:34;;;;;;;7.00;3.50;;;20.80;94.40;;;;;;5035149;28;20424;-66
2021/09/28 10:35:09;;;;;;;3.57;3.10;;;20.80;93.30;;;;;;5034681;28;20548;-66
2021/09/28 10:37:52;;;;;;;5.13;2.60;;;20.90;94.40;;;;;;5000451;28;20794;-71
2021/09/28 10:40:20;;;;;;;5.67;3.20;;;20.90;94.00;;;;;;5034751;28;20455;-66
2021/09/28 10:43:06;;;;;;;3.40;3.10;;;20.90;93.40;;;;;;5016260;28;20421;-67
2021/09/28 10:45:32;;;;;;;6.27;2.77;;;21.00;93.50;;;;;;5034421;28;20514;-66
2021/09/28 10:48:06;;;;;;;5.17;2.80;;;21.10;93.20;;;;;;5033765;28;20420;-66
2021/09/28 10:50:36;;;;;;;4.73;2.83;;;21.10;93.20;;;;;;5034424;28;20223;-67
2021/09/28 10:53:21;;;;;;;5.43;3.90;;;21.00;92.50;;;;;;5034283;28;20771;-67
2021/09/28 10:55:58;;;;;;;6.87;4.07;;;21.00;92.90;;;;;;5031966;28;20500;-67
2021/09/28 10:58:26;;;;;;;4.07;3.67;;;20.90;91.80;;;;;;5034300;28;20412;-67
2021/09/28 11:00:55;;;;;;;5.90;3.67;;;20.90;91.40;;;;;;5033515;28;20451;-67
2021/09/28 11:03:41;;;;;;;6.20;3.33;;;20.90;93.10;;;;;;5034321;28;20885;-67
2021/09/28 11:06:11;;;;;;;6.37;4.37;;;20.90;92.00;;;;;;5020253;28;20895;-67
2021/09/28 11:08:38;;;;;;;5.10;3.90;;;20.90;92.50;;;;;;5033406;28;20456;-71
2021/09/28 11:11:06;;;;;;;7.07;3.23;;;21.00;92.30;;;;;;5033027;28;20421;-67
2021/09/28 11:13:37;;;;;;;5.13;3.70;;;21.00;92.70;;;;;;5033938;28;20417;-67
2021/09/28 11:16:08;;;;;;;5.73;3.40;;;21.10;91.80;;;;;;5033926;28;20460;-67
2021/09/28 11:18:34;;;;;;;4.57;4.27;;;21.20;91.30;;;;;;5033920;28;20476;-67
2021/09/28 11:21:11;;;;;;;7.67;3.27;;;21.20;92.00;;;;;;5033206;28;20895;-67
2021/09/28 11:23:38;;;;;;;9.77;4.03;;;21.20;92.00;;;;;;5033532;28;20773;-67
2021/09/28 11:26:05;;;;;;;10.20;3.80;;;21.20;92.20;;;;;;5034030;28;20782;-67
2021/09/28 11:28:31;;;;;;;5.30;3.10;;;21.20;91.60;;;;;;5033868;28;20416;-67
2021/09/28 11:31:04;;;;;;;5.00;3.17;;;21.30;91.70;;;;;;5033078;28;20875;-67
2021/09/28 11:33:40;;;;;;;4.30;3.00;;;21.30;90.80;;;;;;5033585;28;20421;-67
2021/09/28 11:36:08;;;;;;;7.13;3.33;;;21.30;91.20;;;;;;5033481;28;20788;-67
2021/09/28 11:38:36;;;;;;;4.90;3.57;;;21.30;92.20;;;;;;5033606;28;20402;-67
2021/09/28 11:41:14;;;;;;;4.37;3.40;;;21.30;91.20;;;;;;5032653;28;20818;-67
2021/09/28 11:43:41;;;;;;;4.30;3.23;;;21.20;90.30;;;;;;5032916;28;20508;-67
2021/09/28 11:46:16;;;;;;;4.53;4.13;;;21.20;91.10;;;;;;5033373;28;20457;-67
2021/09/28 11:48:54;;;;;;;7.90;4.13;;;21.20;91.50;;;;;;5032825;28;20404;-67
2021/09/28 11:51:24;;;;;;;6.90;3.90;;;21.30;91.10;;;;;;5033057;28;20787;-67
2021/09/28 11:53:52;;;;;;;5.43;3.40;;;21.40;90.60;;;;;;5032654;28;20756;-67
2021/09/28 11:56:19;;;;;;;3.57;3.27;;;21.50;90.30;;;;;;5033074;28;20453;-67
2021/09/28 11:58:47;;;;;;;8.63;3.50;;;21.50;89.80;;;;;;5032271;28;20417;-67
2021/09/28 12:01:14;;;;;;;7.30;2.87;;;21.50;88.40;;;;;;5033082;28;20463;-67
2021/09/28 12:09:45;;;;;;;2.97;2.57;;;21.50;87.50;;;;;;5010799;28;20425;-67
2021/09/28 12:12:14;;;;;;;3.23;2.90;;;21.50;87.60;;;;;;5032600;28;20905;-67
2021/09/28 12:14:42;;;;;;;3.40;2.83;;;21.50;88.10;;;;;;5032277;28;20463;-67
2021/09/28 12:17:17;;;;;;;3.30;3.10;;;21.30;83.90;;;;;;5032810;28;20417;-67
2021/09/28 12:19:50;;;;;;;3.70;2.57;;;21.30;88.70;;;;;;5032281;28;20787;-67
2021/09/28 12:22:47;;;;;;;7.63;3.03;;;21.40;88.10;;;;;;5033028;28;20751;-67
2021/09/28 12:25:41;;;;;;;3.60;2.83;;;21.20;88.30;;;;;;5016512;28;20417;-67
2021/09/28 12:28:13;;;;;;;6.03;4.40;;;21.10;88.20;;;;;;5028681;28;20455;-67
2021/09/28 12:31:08;;;;;;;3.53;2.70;;;21.00;86.30;;;;;;5032681;28;20394;-67
2021/09/28 12:33:34;;;;;;;5.07;3.23;;;20.90;88.20;;;;;;5032656;28;20408;-67
2021/09/28 12:36:01;;;;;;;6.30;3.33;;;20.90;90.60;;;;;;5031587;28;20486;-67
2021/09/28 12:38:28;;;;;;;6.27;3.40;;;20.90;89.40;;;;;;5032319;28;20823;-67
2021/09/28 12:41:07;;;;;;;4.80;2.70;;;21.00;89.00;;;;;;5032004;28;20401;-67
2021/09/28 12:43:35;;;;;;;4.50;3.17;;;21.00;89.50;;;;;;5032637;28;20389;-67
2021/09/28 12:46:04;;;;;;;4.50;2.60;;;21.10;90.00;;;;;;5031650;28;20514;-67
2021/09/28 12:48:41;;;;;;;3.40;3.10;;;21.10;87.40;;;;;;5032411;28;20401;-67
2021/09/28 12:51:18;;;;;;;7.17;4.00;;;21.10;87.40;;;;;;5032227;28;20400;-67
2021/09/28 12:53:43;;;;;;;4.60;4.20;;;21.10;90.00;;;;;;5031912;28;20484;-68
2021/09/28 12:56:09;;;;;;;5.00;2.70;;;21.10;88.20;;;;;;5032427;28;20543;-67
2021/09/28 12:58:36;;;;;;;3.67;3.13;;;21.10;86.20;;;;;;5032512;28;20197;-67